sensor_id;sensor_type;location;lat;lon;timestamp;pressure;altitude;pressure_sealevel;temperature;humidity
58761;BME280;44529;47.464;19.014;2022-12-07T00:01:24;100202.78;;;2.14;99.29
58761;BME280;44529;47.464;19.014;2022-12-07T00:04:27;100204.31;;;2.05;100.00
58761;BME280;44529;47.464;19.014;2022-12-07T00:07:29;100200.31;;;2.03;100.00
58761;BME280;44529;47.464;19.014;2022-12-07T00:10:33;100206.25;;;1.78;100.00
58761;BME280;44529;47.464;19.014;2022-12-07T00:13:36;100194.47;;;1.69;100.00
58761;BME280;44529;47.464;19.014;2022-12-07T00:16:39;100191.78;;;1.69;100.00
58761;BME280;44529;47.464;19.014;2022-12-07T00:19:41;100187.22;;;1.64;100.00
58761;BME280;44529;47.464;19.014;2022-12-07T00:22:44;100181.84;;;1.59;99.99
58761;BME280;44529;47.464;19.014;2022-12-07T00:25:46;100187.16;;;1.59;98.90
58761;BME280;44529;47.464;19.014;2022-12-07T00:29:01;100183.37;;;1.50;100.00
58761;BME280;44529;47.464;19.014;2022-12-07T00:32:03;100179.63;;;1.51;99.61
58761;BME280;44529;47.464;19.014;2022-12-07T00:35:06;100170.00;;;1.45;100.00
58761;BME280;44529;47.464;19.014;2022-12-07T00:38:08;100170.91;;;1.55;99.52
58761;BME280;44529;47.464;19.014;2022-12-07T00:44:14;100170.88;;;1.28;100.00
58761;BME280;44529;47.464;19.014;2022-12-07T00:47:18;100162.87;;;1.23;100.00
58761;BME280;44529;47.464;19.014;2022-12-07T00:50:20;100157.53;;;1.23;100.00
58761;BME280;44529;47.464;19.014;2022-12-07T00:53:22;100165.75;;;1.17;100.00
58761;BME280;44529;47.464;19.014;2022-12-07T00:56:27;100170.59;;;1.25;100.00
58761;BME280;44529;47.464;19.014;2022-12-07T00:59:29;100166.06;;;1.25;100.00
58761;BME280;44529;47.464;19.014;2022-12-07T01:02:32;100162.66;;;1.30;100.00
58761;BME280;44529;47.464;19.014;2022-12-07T01:05:34;100163.22;;;1.32;100.00
58761;BME280;44529;47.464;19.014;2022-12-07T01:08:36;100176.72;;;1.25;100.00
58761;BME280;44529;47.464;19.014;2022-12-07T01:11:39;100166.88;;;1.26;100.00
58761;BME280;44529;47.464;19.014;2022-12-07T01:14:41;100163.91;;;1.22;100.00
58761;BME280;44529;47.464;19.014;2022-12-07T01:17:44;100158.50;;;1.12;100.00
58761;BME280;44529;47.464;19.014;2022-12-07T01:21:09;100159.56;;;1.11;100.00
58761;BME280;44529;47.464;19.014;2022-12-07T01:24:13;100167.62;;;1.21;100.00
58761;BME280;44529;47.464;19.014;2022-12-07T01:27:15;100158.56;;;1.17;100.00
58761;BME280;44529;47.464;19.014;2022-12-07T01:30:18;100167.88;;;1.20;100.00
58761;BME280;44529;47.464;19.014;2022-12-07T01:33:20;100158.75;;;1.11;100.00
58761;BME280;44529;47.464;19.014;2022-12-07T01:36:40;100157.75;;;1.17;100.00
58761;BME280;44529;47.464;19.014;2022-12-07T01:39:43;100150.50;;;1.12;100.00
58761;BME280;44529;47.464;19.014;2022-12-07T01:42:45;100148.38;;;1.14;100.00
58761;BME280;44529;47.464;19.014;2022-12-07T01:45:47;100149.19;;;1.15;100.00
58761;BME280;44529;47.464;19.014;2022-12-07T01:48:50;100157.75;;;1.17;100.00
58761;BME280;44529;47.464;19.014;2022-12-07T01:52:29;100157.97;;;1.15;100.00
58761;BME280;44529;47.464;19.014;2022-12-07T01:55:23;100152.56;;;1.05;100.00
58761;BME280;44529;47.464;19.014;2022-12-07T01:58:26;100152.25;;;1.01;100.00
58761;BME280;44529;47.464;19.014;2022-12-07T02:01:28;100146.19;;;1.06;100.00
58761;BME280;44529;47.464;19.014;2022-12-07T02:04:31;100140.59;;;1.07;100.00
58761;BME280;44529;47.464;19.014;2022-12-07T02:07:36;100138.75;;;1.08;100.00
58761;BME280;44529;47.464;19.014;2022-12-07T02:10:40;100138.78;;;1.13;100.00
58761;BME280;44529;47.464;19.014;2022-12-07T02:13:42;100139.34;;;1.15;100.00
58761;BME280;44529;47.464;19.014;2022-12-07T02:16:57;100134.06;;;1.20;100.00
58761;BME280;44529;47.464;19.014;2022-12-07T02:23:39;100141.25;;;1.20;100.00
58761;BME280;44529;47.464;19.014;2022-12-07T02:30:15;100142.13;;;1.25;100.00
58761;BME280;44529;47.464;19.014;2022-12-07T02:33:33;100135.44;;;1.23;100.00
58761;BME280;44529;47.464;19.014;2022-12-07T02:36:42;100139.50;;;1.30;100.00
58761;BME280;44529;47.464;19.014;2022-12-07T02:39:51;100137.62;;;1.31;100.00
58761;BME280;44529;47.464;19.014;2022-12-07T02:43:19;100129.97;;;1.40;100.00
58761;BME280;44529;47.464;19.014;2022-12-07T02:46:34;100126.62;;;1.49;100.00
58761;BME280;44529;47.464;19.014;2022-12-07T02:49:40;100129.59;;;1.58;100.00
58761;BME280;44529;47.464;19.014;2022-12-07T02:52:42;100132.59;;;1.67;100.00
58761;BME280;44529;47.464;19.014;2022-12-07T02:55:45;100130.72;;;1.62;100.00
58761;BME280;44529;47.464;19.014;2022-12-07T02:59:00;100115.34;;;1.74;100.00
58761;BME280;44529;47.464;19.014;2022-12-07T03:02:58;100119.88;;;1.79;100.00
58761;BME280;44529;47.464;19.014;2022-12-07T03:06:11;100118.06;;;1.84;100.00
58761;BME280;44529;47.464;19.014;2022-12-07T03:09:39;100113.59;;;1.95;100.00
58761;BME280;44529;47.464;19.014;2022-12-07T03:16:15;100110.97;;;2.05;100.00
58761;BME280;44529;47.464;19.014;2022-12-07T03:19:19;100112.66;;;2.16;100.00
58761;BME280;44529;47.464;19.014;2022-12-07T03:22:23;100116.41;;;2.21;100.00
58761;BME280;44529;47.464;19.014;2022-12-07T03:25:27;100117.25;;;2.26;100.00
58761;BME280;44529;47.464;19.014;2022-12-07T03:28:36;100108.19;;;2.27;100.00
58761;BME280;44529;47.464;19.014;2022-12-07T03:31:46;100107.12;;;2.33;100.00
58761;BME280;44529;47.464;19.014;2022-12-07T03:34:58;100109.22;;;2.21;100.00
58761;BME280;44529;47.464;19.014;2022-12-07T03:38:14;100110.59;;;2.29;100.00
58761;BME280;44529;47.464;19.014;2022-12-07T03:41:22;100105.31;;;2.39;100.00
58761;BME280;44529;47.464;19.014;2022-12-07T03:44:26;100105.84;;;2.51;100.00
58761;BME280;44529;47.464;19.014;2022-12-07T03:47:47;100113.09;;;2.56;100.00
58761;BME280;44529;47.464;19.014;2022-12-07T03:50:59;100112.31;;;2.60;100.00
58761;BME280;44529;47.464;19.014;2022-12-07T03:54:15;100120.84;;;2.62;100.00
58761;BME280;44529;47.464;19.014;2022-12-07T03:57:21;100119.81;;;2.68;100.00
58761;BME280;44529;47.464;19.014;2022-12-07T04:00:25;100120.91;;;2.72;100.00
58761;BME280;44529;47.464;19.014;2022-12-07T04:03:28;100120.91;;;2.72;100.00
58761;BME280;44529;47.464;19.014;2022-12-07T04:06:30;100125.41;;;2.67;100.00
58761;BME280;44529;47.464;19.014;2022-12-07T04:09:32;100129.72;;;2.73;100.00
58761;BME280;44529;47.464;19.014;2022-12-07T04:12:34;100131.06;;;2.81;100.00
58761;BME280;44529;47.464;19.014;2022-12-07T04:15:37;100130.56;;;2.99;100.00
58761;BME280;44529;47.464;19.014;2022-12-07T04:18:39;100122.56;;;2.99;100.00
58761;BME280;44529;47.464;19.014;2022-12-07T04:21:42;100120.69;;;2.94;100.00
58761;BME280;44529;47.464;19.014;2022-12-07T04:24:44;100122.81;;;2.87;100.00
58761;BME280;44529;47.464;19.014;2022-12-07T04:27:47;100130.84;;;2.97;100.00
58761;BME280;44529;47.464;19.014;2022-12-07T04:30:49;100133.53;;;2.97;100.00
58761;BME280;44529;47.464;19.014;2022-12-07T04:33:51;100128.72;;;3.05;100.00
58761;BME280;44529;47.464;19.014;2022-12-07T04:36:54;100129.25;;;3.02;100.00
58761;BME280;44529;47.464;19.014;2022-12-07T04:39:56;100127.09;;;3.09;100.00
58761;BME280;44529;47.464;19.014;2022-12-07T04:42:58;100134.59;;;3.07;100.00
58761;BME280;44529;47.464;19.014;2022-12-07T04:46:01;100130.88;;;3.13;100.00
58761;BME280;44529;47.464;19.014;2022-12-07T04:49:04;100122.06;;;3.17;100.00
58761;BME280;44529;47.464;19.014;2022-12-07T04:52:06;100134.31;;;3.08;100.00
58761;BME280;44529;47.464;19.014;2022-12-07T04:55:08;100136.22;;;3.18;100.00
58761;BME280;44529;47.464;19.014;2022-12-07T04:58:12;100129.28;;;3.17;100.00
58761;BME280;44529;47.464;19.014;2022-12-07T05:01:15;100137.84;;;3.24;100.00
58761;BME280;44529;47.464;19.014;2022-12-07T05:04:18;100143.19;;;3.24;100.00
58761;BME280;44529;47.464;19.014;2022-12-07T05:07:20;100139.97;;;3.27;100.00
58761;BME280;44529;47.464;19.014;2022-12-07T05:10:23;100143.44;;;3.28;100.00
58761;BME280;44529;47.464;19.014;2022-12-07T05:13:26;100137.00;;;3.13;100.00
58761;BME280;44529;47.464;19.014;2022-12-07T05:16:28;100141.28;;;3.19;100.00
58761;BME280;44529;47.464;19.014;2022-12-07T05:19:31;100134.38;;;3.23;100.00
58761;BME280;44529;47.464;19.014;2022-12-07T05:22:33;100129.28;;;3.27;100.00
58761;BME280;44529;47.464;19.014;2022-12-07T05:25:36;100131.16;;;3.26;100.00
58761;BME280;44529;47.464;19.014;2022-12-07T05:28:38;100138.38;;;3.36;100.00
58761;BME280;44529;47.464;19.014;2022-12-07T05:31:41;100144.25;;;3.33;100.00
58761;BME280;44529;47.464;19.014;2022-12-07T05:34:43;100118.03;;;3.15;100.00
58761;BME280;44529;47.464;19.014;2022-12-07T05:37:45;100125.81;;;3.16;100.00
58761;BME280;44529;47.464;19.014;2022-12-07T05:40:48;100117.00;;;3.16;100.00
58761;BME280;44529;47.464;19.014;2022-12-07T05:43:51;100122.06;;;3.17;100.00
58761;BME280;44529;47.464;19.014;2022-12-07T05:46:53;100114.81;;;3.03;100.00
58761;BME280;44529;47.464;19.014;2022-12-07T05:49:56;100122.84;;;3.08;100.00
58761;BME280;44529;47.464;19.014;2022-12-07T05:52:58;100120.16;;;3.03;100.00
58761;BME280;44529;47.464;19.014;2022-12-07T05:56:00;100113.75;;;3.09;100.00
58761;BME280;44529;47.464;19.014;2022-12-07T05:59:03;100124.72;;;3.12;100.00
58761;BME280;44529;47.464;19.014;2022-12-07T06:02:24;100121.53;;;3.10;100.00
58761;BME280;44529;47.464;19.014;2022-12-07T06:05:26;100127.91;;;2.99;100.00
58761;BME280;44529;47.464;19.014;2022-12-07T06:08:28;100124.69;;;2.92;100.00
58761;BME280;44529;47.464;19.014;2022-12-07T06:11:31;100127.12;;;3.04;100.00
58761;BME280;44529;47.464;19.014;2022-12-07T06:14:52;100127.38;;;3.07;100.00
58761;BME280;44529;47.464;19.014;2022-12-07T06:17:55;100119.09;;;3.09;100.00
58761;BME280;44529;47.464;19.014;2022-12-07T06:20:57;100123.94;;;3.12;100.00
58761;BME280;44529;47.464;19.014;2022-12-07T06:23:59;100127.41;;;3.17;100.00
58761;BME280;44529;47.464;19.014;2022-12-07T06:27:02;100127.16;;;3.24;100.00
58761;BME280;44529;47.464;19.014;2022-12-07T06:30:05;100123.13;;;3.26;100.00
58761;BME280;44529;47.464;19.014;2022-12-07T06:33:08;100130.62;;;3.35;100.00
58761;BME280;44529;47.464;19.014;2022-12-07T06:36:11;100128.22;;;3.33;100.00
58761;BME280;44529;47.464;19.014;2022-12-07T06:39:13;100131.13;;;3.21;100.00
58761;BME280;44529;47.464;19.014;2022-12-07T06:42:16;100130.59;;;3.19;100.00
58761;BME280;44529;47.464;19.014;2022-12-07T06:45:18;100125.50;;;3.08;100.00
58761;BME280;44529;47.464;19.014;2022-12-07T06:48:20;100139.44;;;3.10;100.00
58761;BME280;44529;47.464;19.014;2022-12-07T06:51:23;100136.75;;;3.15;100.00
58761;BME280;44529;47.464;19.014;2022-12-07T06:54:26;100135.69;;;3.21;100.00
58761;BME280;44529;47.464;19.014;2022-12-07T06:57:30;100144.78;;;3.25;100.00
58761;BME280;44529;47.464;19.014;2022-12-07T07:00:32;100144.78;;;3.25;100.00
58761;BME280;44529;47.464;19.014;2022-12-07T07:03:45;100146.91;;;3.33;100.00
58761;BME280;44529;47.464;19.014;2022-12-07T07:06:50;100149.31;;;3.24;100.00
58761;BME280;44529;47.464;19.014;2022-12-07T07:10:00;100151.22;;;3.29;100.00
58761;BME280;44529;47.464;19.014;2022-12-07T07:13:04;100149.59;;;3.33;100.00
58761;BME280;44529;47.464;19.014;2022-12-07T07:16:06;100151.47;;;3.33;100.00
58761;BME280;44529;47.464;19.014;2022-12-07T07:19:09;100149.09;;;3.36;100.00
58761;BME280;44529;47.464;19.014;2022-12-07T07:22:11;100147.72;;;3.39;100.00
58761;BME280;44529;47.464;19.014;2022-12-07T07:25:14;100148.00;;;3.37;100.00
58761;BME280;44529;47.464;19.014;2022-12-07T07:28:17;100154.94;;;3.33;100.00
58761;BME280;44529;47.464;19.014;2022-12-07T07:31:19;100149.63;;;3.43;100.00
58761;BME280;44529;47.464;19.014;2022-12-07T07:34:22;100157.09;;;3.46;100.00
58761;BME280;44529;47.464;19.014;2022-12-07T07:37:25;100158.69;;;3.47;100.00
58761;BME280;44529;47.464;19.014;2022-12-07T07:40:28;100148.53;;;3.44;100.00
58761;BME280;44529;47.464;19.014;2022-12-07T07:43:32;100148.56;;;3.49;100.00
58761;BME280;44529;47.464;19.014;2022-12-07T07:46:34;100155.78;;;3.49;100.00
58761;BME280;44529;47.464;19.014;2022-12-07T07:49:37;100147.22;;;3.57;100.00
58761;BME280;44529;47.464;19.014;2022-12-07T07:52:47;100142.94;;;3.56;100.00
58761;BME280;44529;47.464;19.014;2022-12-07T07:55:51;100147.50;;;3.61;100.00
58761;BME280;44529;47.464;19.014;2022-12-07T07:58:54;100152.84;;;3.61;100.00
58761;BME280;44529;47.464;19.014;2022-12-07T08:01:57;100148.03;;;3.68;100.00
58761;BME280;44529;47.464;19.014;2022-12-07T08:04:59;100149.06;;;3.77;100.00
58761;BME280;44529;47.464;19.014;2022-12-07T08:08:02;100159.78;;;3.82;100.00
58761;BME280;44529;47.464;19.014;2022-12-07T08:11:08;100156.56;;;3.90;100.00
58761;BME280;44529;47.464;19.014;2022-12-07T08:14:11;100158.72;;;3.93;100.00
58761;BME280;44529;47.464;19.014;2022-12-07T08:17:13;100160.84;;;3.91;100.00
58761;BME280;44529;47.464;19.014;2022-12-07T08:20:16;100161.09;;;4.00;100.00
58761;BME280;44529;47.464;19.014;2022-12-07T08:23:18;100161.06;;;4.10;100.00
58761;BME280;44529;47.464;19.014;2022-12-07T08:26:20;100153.84;;;4.16;100.00
58761;BME280;44529;47.464;19.014;2022-12-07T08:29:23;100161.34;;;4.14;100.00
58761;BME280;44529;47.464;19.014;2022-12-07T08:32:26;100165.63;;;4.10;100.00
58761;BME280;44529;47.464;19.014;2022-12-07T08:35:29;100166.16;;;4.17;100.00
58761;BME280;44529;47.464;19.014;2022-12-07T08:38:31;100175.75;;;4.23;100.00
58761;BME280;44529;47.464;19.014;2022-12-07T08:41:33;100176.28;;;4.35;100.00
58761;BME280;44529;47.464;19.014;2022-12-07T08:44:36;100178.16;;;4.34;100.00
58761;BME280;44529;47.464;19.014;2022-12-07T08:47:43;100173.31;;;4.42;100.00
58761;BME280;44529;47.464;19.014;2022-12-07T08:50:46;100173.03;;;4.48;100.00
58761;BME280;44529;47.464;19.014;2022-12-07T08:53:52;100164.19;;;4.43;100.00
58761;BME280;44529;47.464;19.014;2022-12-07T08:56:55;100168.19;;;4.50;100.00
58761;BME280;44529;47.464;19.014;2022-12-07T09:00:03;100172.47;;;4.56;100.00
58761;BME280;44529;47.464;19.014;2022-12-07T09:03:08;100172.13;;;4.73;100.00
58761;BME280;44529;47.464;19.014;2022-12-07T09:06:11;100175.31;;;4.80;100.00
58761;BME280;44529;47.464;19.014;2022-12-07T09:09:14;100180.97;;;4.79;100.00
58761;BME280;44529;47.464;19.014;2022-12-07T09:12:16;100179.84;;;4.90;100.00
58761;BME280;44529;47.464;19.014;2022-12-07T09:15:19;100166.91;;;5.02;100.00
58761;BME280;44529;47.464;19.014;2022-12-07T09:18:21;100155.03;;;5.19;100.00
58761;BME280;44529;47.464;19.014;2022-12-07T09:21:23;100164.62;;;5.30;97.77
58761;BME280;44529;47.464;19.014;2022-12-07T09:24:26;100161.03;;;5.39;95.30
58761;BME280;44529;47.464;19.014;2022-12-07T09:27:28;100159.91;;;5.51;93.19
58761;BME280;44529;47.464;19.014;2022-12-07T09:30:31;100158.28;;;5.55;91.78
58761;BME280;44529;47.464;19.014;2022-12-07T09:33:33;100158.19;;;5.65;91.05
58761;BME280;44529;47.464;19.014;2022-12-07T09:36:35;100149.25;;;5.75;90.06
58761;BME280;44529;47.464;19.014;2022-12-07T09:39:39;100154.59;;;5.80;91.36
58761;BME280;44529;47.464;19.014;2022-12-07T09:42:54;100146.72;;;5.88;88.10
58761;BME280;44529;47.464;19.014;2022-12-07T09:45:57;100150.19;;;5.94;87.55
58761;BME280;44529;47.464;19.014;2022-12-07T09:48:59;100142.31;;;6.03;87.62
58761;BME280;44529;47.464;19.014;2022-12-07T09:55:15;100144.31;;;6.16;86.10
58761;BME280;44529;47.464;19.014;2022-12-07T09:58:25;100141.47;;;6.07;87.11
58761;BME280;44529;47.464;19.014;2022-12-07T10:01:31;100136.63;;;6.09;88.36
58761;BME280;44529;47.464;19.014;2022-12-07T10:04:34;100141.31;;;6.22;85.94
58761;BME280;44529;47.464;19.014;2022-12-07T10:07:36;100138.28;;;6.29;85.59
58761;BME280;44529;47.464;19.014;2022-12-07T10:10:39;100136.03;;;6.36;84.34
58761;BME280;44529;47.464;19.014;2022-12-07T10:13:47;100137.44;;;6.34;84.75
58761;BME280;44529;47.464;19.014;2022-12-07T10:16:51;100128.47;;;6.19;86.09
58761;BME280;44529;47.464;19.014;2022-12-07T10:23:17;100123.75;;;6.30;85.42
58761;BME280;44529;47.464;19.014;2022-12-07T10:29:36;100127.72;;;6.38;85.94
58761;BME280;44529;47.464;19.014;2022-12-07T10:32:39;100115.00;;;6.43;86.08
58761;BME280;44529;47.464;19.014;2022-12-07T10:35:44;100117.19;;;6.41;82.92
58761;BME280;44529;47.464;19.014;2022-12-07T10:39:11;100117.19;;;6.41;84.43
58761;BME280;44529;47.464;19.014;2022-12-07T10:42:21;100109.88;;;6.47;84.84
58761;BME280;44529;47.464;19.014;2022-12-07T10:45:24;100108.69;;;6.58;84.20
58761;BME280;44529;47.464;19.014;2022-12-07T10:48:30;100108.59;;;6.63;83.18
58761;BME280;44529;47.464;19.014;2022-12-07T10:51:45;100115.94;;;6.58;81.25
58761;BME280;44529;47.464;19.014;2022-12-07T10:58:49;100111.81;;;6.65;78.36
58761;BME280;44529;47.464;19.014;2022-12-07T11:01:59;100118.63;;;6.58;79.76
58761;BME280;44529;47.464;19.014;2022-12-07T11:05:18;100116.44;;;6.60;79.54
58761;BME280;44529;47.464;19.014;2022-12-07T11:12:10;100104.91;;;6.59;80.70
58761;BME280;44529;47.464;19.014;2022-12-07T11:15:20;100102.06;;;6.69;77.91
58761;BME280;44529;47.464;19.014;2022-12-07T11:18:33;100110.84;;;6.56;79.34
58761;BME280;44529;47.464;19.014;2022-12-07T11:25:32;100103.22;;;6.63;79.66
58761;BME280;44529;47.464;19.014;2022-12-07T11:29:00;100099.31;;;6.74;78.59
58761;BME280;44529;47.464;19.014;2022-12-07T11:38:56;100093.22;;;6.88;78.02
58761;BME280;44529;47.464;19.014;2022-12-07T11:42:21;100092.66;;;6.91;76.68
58761;BME280;44529;47.464;19.014;2022-12-07T11:45:27;100091.19;;;6.79;78.95
58761;BME280;44529;47.464;19.014;2022-12-07T11:48:40;100091.69;;;6.82;78.01
58761;BME280;44529;47.464;19.014;2022-12-07T11:51:44;100106.47;;;7.03;77.69
58761;BME280;44529;47.464;19.014;2022-12-07T11:54:51;100104.34;;;7.00;76.69
58761;BME280;44529;47.464;19.014;2022-12-07T11:58:03;100109.72;;;7.00;76.30
58761;BME280;44529;47.464;19.014;2022-12-07T12:05:06;100106.59;;;7.12;76.49
58761;BME280;44529;47.464;19.014;2022-12-07T12:22:18;100067.81;;;6.99;77.22
58761;BME280;44529;47.464;19.014;2022-12-07T12:25:25;100064.66;;;7.11;74.86
58761;BME280;44529;47.464;19.014;2022-12-07T12:28:42;100051.91;;;7.02;72.98
58761;BME280;44529;47.464;19.014;2022-12-07T12:32:18;100050.09;;;6.98;74.47
58761;BME280;44529;47.464;19.014;2022-12-07T12:35:36;100046.91;;;6.96;73.54
58761;BME280;44529;47.464;19.014;2022-12-07T12:42:00;100047.97;;;6.76;73.76
58761;BME280;44529;47.464;19.014;2022-12-07T12:45:16;100035.12;;;6.54;74.48
58761;BME280;44529;47.464;19.014;2022-12-07T12:48:39;100047.81;;;6.67;74.29
58761;BME280;44529;47.464;19.014;2022-12-07T12:51:43;100039.78;;;6.67;74.58
58761;BME280;44529;47.464;19.014;2022-12-07T12:55:01;100033.91;;;6.65;74.98
58761;BME280;44529;47.464;19.014;2022-12-07T13:01:39;100049.78;;;6.62;75.89
58761;BME280;44529;47.464;19.014;2022-12-07T13:04:58;100048.78;;;6.76;75.35
58761;BME280;44529;47.464;19.014;2022-12-07T13:08:14;100046.09;;;6.76;75.81
58761;BME280;44529;47.464;19.014;2022-12-07T13:11:28;100051.00;;;6.69;77.26
58761;BME280;44529;47.464;19.014;2022-12-07T13:20:48;100060.03;;;6.60;73.66
58761;BME280;44529;47.464;19.014;2022-12-07T13:24:00;100058.16;;;6.79;73.45
58761;BME280;44529;47.464;19.014;2022-12-07T13:27:07;100062.59;;;6.70;72.77
58761;BME280;44529;47.464;19.014;2022-12-07T13:30:17;100063.87;;;6.72;72.97
58761;BME280;44529;47.464;19.014;2022-12-07T13:33:20;100060.03;;;6.60;73.25
58761;BME280;44529;47.464;19.014;2022-12-07T13:36:30;100055.50;;;6.55;75.49
58761;BME280;44529;47.464;19.014;2022-12-07T13:39:46;100062.94;;;6.44;76.31
58761;BME280;44529;47.464;19.014;2022-12-07T13:42:57;100061.84;;;6.45;74.92
58761;BME280;44529;47.464;19.014;2022-12-07T13:45:59;100064.00;;;6.43;74.25
58761;BME280;44529;47.464;19.014;2022-12-07T13:49:17;100063.78;;;6.40;73.94
58761;BME280;44529;47.464;19.014;2022-12-07T13:52:23;100069.78;;;6.32;73.70
58761;BME280;44529;47.464;19.014;2022-12-07T13:55:29;100072.47;;;6.32;74.65
58761;BME280;44529;47.464;19.014;2022-12-07T13:58:33;100070.94;;;6.26;74.20
58761;BME280;44529;47.464;19.014;2022-12-07T14:01:36;100079.59;;;6.17;74.56
58761;BME280;44529;47.464;19.014;2022-12-07T14:04:38;100077.37;;;6.24;73.73
58761;BME280;44529;47.464;19.014;2022-12-07T14:11:16;100076.88;;;6.22;75.72
58761;BME280;44529;47.464;19.014;2022-12-07T14:14:25;100077.22;;;6.16;75.62
58761;BME280;44529;47.464;19.014;2022-12-07T14:17:49;100069.16;;;6.16;75.89
58761;BME280;44529;47.464;19.014;2022-12-07T14:24:18;100077.50;;;6.14;76.04
58761;BME280;44529;47.464;19.014;2022-12-07T14:27:24;100078.66;;;6.08;76.58
58761;BME280;44529;47.464;19.014;2022-12-07T14:30:33;100073.78;;;6.10;76.73
58761;BME280;44529;47.464;19.014;2022-12-07T14:33:36;100077.06;;;6.07;76.86
58761;BME280;44529;47.464;19.014;2022-12-07T14:36:39;100074.13;;;6.04;77.33
58761;BME280;44529;47.464;19.014;2022-12-07T14:39:41;100073.97;;;5.90;78.91
58761;BME280;44529;47.464;19.014;2022-12-07T14:42:46;100078.59;;;5.84;79.31
58761;BME280;44529;47.464;19.014;2022-12-07T14:45:49;100079.47;;;5.80;79.18
58761;BME280;44529;47.464;19.014;2022-12-07T14:48:52;100084.87;;;5.75;80.56
58761;BME280;44529;47.464;19.014;2022-12-07T14:52:24;100082.19;;;5.75;79.62
58761;BME280;44529;47.464;19.014;2022-12-07T14:55:47;100081.72;;;5.67;80.39
58761;BME280;44529;47.464;19.014;2022-12-07T14:58:49;100088.75;;;5.58;81.15
58761;BME280;44529;47.464;19.014;2022-12-07T15:01:51;100091.75;;;5.57;80.89
58761;BME280;44529;47.464;19.014;2022-12-07T15:04:53;100092.03;;;5.55;80.69
58761;BME280;44529;47.464;19.014;2022-12-07T15:07:56;100093.69;;;5.46;81.86
58761;BME280;44529;47.464;19.014;2022-12-07T15:10:58;100094.22;;;5.48;80.99
58761;BME280;44529;47.464;19.014;2022-12-07T15:14:01;100090.47;;;5.49;81.34
58761;BME280;44529;47.464;19.014;2022-12-07T15:17:11;100104.97;;;5.48;81.60
58761;BME280;44529;47.464;19.014;2022-12-07T15:20:29;100106.59;;;5.44;81.79
58761;BME280;44529;47.464;19.014;2022-12-07T15:23:31;100110.97;;;5.35;82.38
58761;BME280;44529;47.464;19.014;2022-12-07T15:26:34;100111.50;;;5.32;82.09
58761;BME280;44529;47.464;19.014;2022-12-07T15:29:36;100112.88;;;5.29;81.97
58761;BME280;44529;47.464;19.014;2022-12-07T15:32:38;100116.13;;;5.21;82.14
58761;BME280;44529;47.464;19.014;2022-12-07T15:35:42;100112.13;;;5.24;82.08
58761;BME280;44529;47.464;19.014;2022-12-07T15:38:45;100114.31;;;5.16;81.90
58761;BME280;44529;47.464;19.014;2022-12-07T15:42:08;100120.53;;;5.07;82.32
58761;BME280;44529;47.464;19.014;2022-12-07T15:45:10;100117.91;;;4.97;82.87
58761;BME280;44529;47.464;19.014;2022-12-07T15:48:13;100124.34;;;4.96;82.57
58761;BME280;44529;47.464;19.014;2022-12-07T15:51:31;100135.63;;;4.93;83.12
58761;BME280;44529;47.464;19.014;2022-12-07T15:54:33;100140.25;;;4.77;84.33
58761;BME280;44529;47.464;19.014;2022-12-07T15:57:37;100134.12;;;4.71;83.97
58761;BME280;44529;47.464;19.014;2022-12-07T16:00:39;100129.56;;;4.77;82.66
58761;BME280;44529;47.464;19.014;2022-12-07T16:03:43;100144.00;;;4.76;84.47
58761;BME280;44529;47.464;19.014;2022-12-07T16:06:47;100136.63;;;4.52;85.24
58761;BME280;44529;47.464;19.014;2022-12-07T16:09:51;100140.91;;;4.43;85.11
58761;BME280;44529;47.464;19.014;2022-12-07T16:12:53;100140.41;;;4.41;84.99
58761;BME280;44529;47.464;19.014;2022-12-07T16:15:55;100142.56;;;4.29;85.82
58761;BME280;44529;47.464;19.014;2022-12-07T16:18:58;100139.66;;;4.20;86.01
58761;BME280;44529;47.464;19.014;2022-12-07T16:22:01;100123.09;;;4.03;87.53
58761;BME280;44529;47.464;19.014;2022-12-07T16:25:03;100124.97;;;3.92;88.32
58761;BME280;44529;47.464;19.014;2022-12-07T16:28:07;100133.84;;;3.83;89.66
58761;BME280;44529;47.464;19.014;2022-12-07T16:31:13;100131.16;;;3.83;88.53
58761;BME280;44529;47.464;19.014;2022-12-07T16:34:16;100131.44;;;3.76;89.62
58761;BME280;44529;47.464;19.014;2022-12-07T16:37:19;100130.09;;;3.63;91.54
58761;BME280;44529;47.464;19.014;2022-12-07T16:40:22;100131.97;;;3.68;90.44
58761;BME280;44529;47.464;19.014;2022-12-07T16:43:24;100145.59;;;3.66;89.83
58761;BME280;44529;47.464;19.014;2022-12-07T16:46:27;100137.31;;;3.58;90.68
58761;BME280;44529;47.464;19.014;2022-12-07T16:49:29;100142.66;;;3.63;90.81
58761;BME280;44529;47.464;19.014;2022-12-07T16:52:32;100146.66;;;3.60;89.95
58761;BME280;44529;47.464;19.014;2022-12-07T16:55:38;100145.63;;;3.61;90.44
58761;BME280;44529;47.464;19.014;2022-12-07T16:58:43;100143.19;;;3.44;90.65
58761;BME280;44529;47.464;19.014;2022-12-07T17:01:46;100146.38;;;3.41;90.39
58761;BME280;44529;47.464;19.014;2022-12-07T17:04:49;100147.16;;;3.21;93.24
58761;BME280;44529;47.464;19.014;2022-12-07T17:07:52;100146.38;;;3.21;92.98
58761;BME280;44529;47.464;19.014;2022-12-07T17:10:54;100150.91;;;3.15;93.95
58761;BME280;44529;47.464;19.014;2022-12-07T17:13:56;100149.03;;;3.11;93.72
58761;BME280;44529;47.464;19.014;2022-12-07T17:17:18;100149.31;;;3.09;92.82
58761;BME280;44529;47.464;19.014;2022-12-07T17:20:21;100155.72;;;3.13;93.26
58761;BME280;44529;47.464;19.014;2022-12-07T17:23:24;100160.25;;;3.13;93.41
58761;BME280;44529;47.464;19.014;2022-12-07T17:26:29;100160.75;;;2.94;95.58